sensor_id;sensor_type;location;lat;lon;timestamp;P1;durP1;ratioP1;P2;durP2;ratioP2
54641;SDS011;40536;53.194;5.728;2022-10-16T00:00:30;193.60;;;185.20;;
54641;SDS011;40536;53.194;5.728;2022-10-16T00:02:56;182.20;;;174.00;;
54641;SDS011;40536;53.194;5.728;2022-10-16T00:05:22;194.65;;;186.18;;
54641;SDS011;40536;53.194;5.728;2022-10-16T00:07:47;178.70;;;170.98;;
54641;SDS011;40536;53.194;5.728;2022-10-16T00:10:13;307.00;;;289.17;;
54641;SDS011;40536;53.194;5.728;2022-10-16T00:12:38;183.80;;;175.52;;
54641;SDS011;40536;53.194;5.728;2022-10-16T00:15:04;200.32;;;191.60;;
54641;SDS011;40536;53.194;5.728;2022-10-16T00:17:31;195.00;;;186.90;;
54641;SDS011;40536;53.194;5.728;2022-10-16T00:19:56;201.90;;;192.48;;
54641;SDS011;40536;53.194;5.728;2022-10-16T00:22:22;185.43;;;177.55;;
54641;SDS011;40536;53.194;5.728;2022-10-16T00:24:48;171.57;;;164.27;;
54641;SDS011;40536;53.194;5.728;2022-10-16T00:27:13;158.38;;;151.30;;
54641;SDS011;40536;53.194;5.728;2022-10-16T00:29:39;168.23;;;160.52;;
54641;SDS011;40536;53.194;5.728;2022-10-16T00:32:05;179.10;;;170.68;;
54641;SDS011;40536;53.194;5.728;2022-10-16T00:34:30;170.00;;;162.60;;
54641;SDS011;40536;53.194;5.728;2022-10-16T00:36:56;152.93;;;146.15;;
54641;SDS011;40536;53.194;5.728;2022-10-16T00:39:22;155.50;;;147.52;;
54641;SDS011;40536;53.194;5.728;2022-10-16T00:41:48;188.38;;;179.80;;
54641;SDS011;40536;53.194;5.728;2022-10-16T00:47:13;153.20;;;146.35;;
54641;SDS011;40536;53.194;5.728;2022-10-16T00:49:43;147.35;;;140.82;;
54641;SDS011;40536;53.194;5.728;2022-10-16T00:52:09;133.73;;;128.02;;
54641;SDS011;40536;53.194;5.728;2022-10-16T00:54:36;142.07;;;135.32;;
54641;SDS011;40536;53.194;5.728;2022-10-16T00:57:03;157.73;;;150.60;;
54641;SDS011;40536;53.194;5.728;2022-10-16T00:59:32;145.25;;;138.85;;
54641;SDS011;40536;53.194;5.728;2022-10-16T01:02:00;142.20;;;136.05;;
54641;SDS011;40536;53.194;5.728;2022-10-16T01:04:28;146.73;;;140.23;;
54641;SDS011;40536;53.194;5.728;2022-10-16T01:07:16;150.10;;;142.77;;
54641;SDS011;40536;53.194;5.728;2022-10-16T01:15:26;150.82;;;143.90;;
54641;SDS011;40536;53.194;5.728;2022-10-16T01:18:14;120.32;;;114.57;;
54641;SDS011;40536;53.194;5.728;2022-10-16T01:20:50;100.05;;;95.50;;
54641;SDS011;40536;53.194;5.728;2022-10-16T01:23:50;128.07;;;121.25;;
54641;SDS011;40536;53.194;5.728;2022-10-16T01:28:52;103.10;;;98.40;;
54641;SDS011;40536;53.194;5.728;2022-10-16T01:31:24;82.00;;;78.05;;
54641;SDS011;40536;53.194;5.728;2022-10-16T01:33:58;88.13;;;83.70;;
54641;SDS011;40536;53.194;5.728;2022-10-16T01:36:31;81.55;;;77.72;;
54641;SDS011;40536;53.194;5.728;2022-10-16T01:39:26;110.78;;;105.40;;
54641;SDS011;40536;53.194;5.728;2022-10-16T01:42:01;78.10;;;74.50;;
54641;SDS011;40536;53.194;5.728;2022-10-16T01:44:34;69.32;;;66.00;;
54641;SDS011;40536;53.194;5.728;2022-10-16T01:47:02;106.60;;;101.13;;
54641;SDS011;40536;53.194;5.728;2022-10-16T01:49:33;83.55;;;79.47;;
54641;SDS011;40536;53.194;5.728;2022-10-16T01:52:02;114.72;;;109.22;;
54641;SDS011;40536;53.194;5.728;2022-10-16T01:54:31;108.75;;;103.03;;
54641;SDS011;40536;53.194;5.728;2022-10-16T01:57:00;113.32;;;108.15;;
54641;SDS011;40536;53.194;5.728;2022-10-16T01:59:29;115.15;;;109.70;;
54641;SDS011;40536;53.194;5.728;2022-10-16T02:02:02;195.05;;;185.73;;
54641;SDS011;40536;53.194;5.728;2022-10-16T02:04:36;196.50;;;186.73;;
54641;SDS011;40536;53.194;5.728;2022-10-16T02:07:04;142.40;;;136.20;;
54641;SDS011;40536;53.194;5.728;2022-10-16T02:09:32;193.00;;;184.02;;
54641;SDS011;40536;53.194;5.728;2022-10-16T02:11:59;184.43;;;176.05;;
54641;SDS011;40536;53.194;5.728;2022-10-16T02:14:31;231.80;;;222.03;;
54641;SDS011;40536;53.194;5.728;2022-10-16T02:16:57;285.42;;;273.48;;
54641;SDS011;40536;53.194;5.728;2022-10-16T02:19:23;328.13;;;313.98;;
54641;SDS011;40536;53.194;5.728;2022-10-16T02:24:38;342.42;;;327.58;;
54641;SDS011;40536;53.194;5.728;2022-10-16T02:29:44;350.02;;;334.80;;
54641;SDS011;40536;53.194;5.728;2022-10-16T02:32:20;303.00;;;290.13;;
54641;SDS011;40536;53.194;5.728;2022-10-16T02:34:49;326.92;;;312.77;;
54641;SDS011;40536;53.194;5.728;2022-10-16T02:37:16;324.90;;;310.48;;
54641;SDS011;40536;53.194;5.728;2022-10-16T02:39:43;316.08;;;302.38;;
54641;SDS011;40536;53.194;5.728;2022-10-16T02:42:13;264.23;;;253.10;;
54641;SDS011;40536;53.194;5.728;2022-10-16T02:44:39;239.10;;;227.43;;
54641;SDS011;40536;53.194;5.728;2022-10-16T02:47:05;220.80;;;211.65;;
54641;SDS011;40536;53.194;5.728;2022-10-16T02:49:31;194.98;;;186.90;;
54641;SDS011;40536;53.194;5.728;2022-10-16T02:51:57;201.40;;;193.02;;
54641;SDS011;40536;53.194;5.728;2022-10-16T02:54:22;178.25;;;170.63;;
54641;SDS011;40536;53.194;5.728;2022-10-16T02:56:49;149.73;;;143.23;;
54641;SDS011;40536;53.194;5.728;2022-10-16T02:59:14;164.60;;;157.30;;
54641;SDS011;40536;53.194;5.728;2022-10-16T03:01:40;138.45;;;132.45;;
54641;SDS011;40536;53.194;5.728;2022-10-16T03:04:06;140.10;;;133.75;;
54641;SDS011;40536;53.194;5.728;2022-10-16T03:06:32;138.55;;;132.43;;
54641;SDS011;40536;53.194;5.728;2022-10-16T03:08:57;142.45;;;136.15;;
54641;SDS011;40536;53.194;5.728;2022-10-16T03:11:23;135.07;;;128.98;;
54641;SDS011;40536;53.194;5.728;2022-10-16T03:13:49;133.95;;;128.23;;
54641;SDS011;40536;53.194;5.728;2022-10-16T03:16:14;142.20;;;135.77;;
54641;SDS011;40536;53.194;5.728;2022-10-16T03:18:40;130.27;;;124.68;;
54641;SDS011;40536;53.194;5.728;2022-10-16T03:21:05;131.43;;;125.60;;
54641;SDS011;40536;53.194;5.728;2022-10-16T03:23:31;145.40;;;138.98;;
54641;SDS011;40536;53.194;5.728;2022-10-16T03:25:57;128.65;;;123.15;;
54641;SDS011;40536;53.194;5.728;2022-10-16T03:28:22;162.00;;;154.98;;
54641;SDS011;40536;53.194;5.728;2022-10-16T03:30:48;199.50;;;191.02;;
54641;SDS011;40536;53.194;5.728;2022-10-16T03:33:13;227.70;;;218.00;;
54641;SDS011;40536;53.194;5.728;2022-10-16T03:35:39;259.77;;;248.65;;
54641;SDS011;40536;53.194;5.728;2022-10-16T03:38:05;260.80;;;249.50;;
54641;SDS011;40536;53.194;5.728;2022-10-16T03:40:30;248.07;;;237.45;;
54641;SDS011;40536;53.194;5.728;2022-10-16T03:42:59;253.98;;;243.15;;
54641;SDS011;40536;53.194;5.728;2022-10-16T03:45:24;251.80;;;240.70;;
54641;SDS011;40536;53.194;5.728;2022-10-16T03:47:51;249.02;;;238.23;;
54641;SDS011;40536;53.194;5.728;2022-10-16T03:50:17;253.80;;;242.82;;
54641;SDS011;40536;53.194;5.728;2022-10-16T03:52:43;266.48;;;254.18;;
54641;SDS011;40536;53.194;5.728;2022-10-16T03:55:08;317.75;;;302.52;;
54641;SDS011;40536;53.194;5.728;2022-10-16T03:57:34;302.60;;;288.20;;
54641;SDS011;40536;53.194;5.728;2022-10-16T04:00:00;388.77;;;368.42;;
54641;SDS011;40536;53.194;5.728;2022-10-16T04:02:26;527.67;;;496.10;;
54641;SDS011;40536;53.194;5.728;2022-10-16T04:04:51;677.75;;;619.72;;
54641;SDS011;40536;53.194;5.728;2022-10-16T04:07:17;536.60;;;503.20;;
54641;SDS011;40536;53.194;5.728;2022-10-16T04:09:43;489.40;;;462.23;;
54641;SDS011;40536;53.194;5.728;2022-10-16T04:12:09;502.30;;;475.17;;
54641;SDS011;40536;53.194;5.728;2022-10-16T04:14:34;480.80;;;455.83;;
54641;SDS011;40536;53.194;5.728;2022-10-16T04:17:00;443.92;;;421.30;;
54641;SDS011;40536;53.194;5.728;2022-10-16T04:19:26;463.08;;;438.20;;
54641;SDS011;40536;53.194;5.728;2022-10-16T04:21:51;471.00;;;445.80;;
54641;SDS011;40536;53.194;5.728;2022-10-16T04:24:17;467.05;;;441.60;;
54641;SDS011;40536;53.194;5.728;2022-10-16T04:26:43;523.47;;;492.60;;
54641;SDS011;40536;53.194;5.728;2022-10-16T04:29:08;622.42;;;582.17;;
54641;SDS011;40536;53.194;5.728;2022-10-16T04:31:34;534.95;;;501.75;;
54641;SDS011;40536;53.194;5.728;2022-10-16T04:33:59;517.13;;;485.55;;
54641;SDS011;40536;53.194;5.728;2022-10-16T04:36:25;546.22;;;511.42;;
54641;SDS011;40536;53.194;5.728;2022-10-16T04:38:51;455.38;;;430.25;;
54641;SDS011;40536;53.194;5.728;2022-10-16T04:41:16;451.55;;;425.98;;
54641;SDS011;40536;53.194;5.728;2022-10-16T04:43:42;398.10;;;378.00;;
54641;SDS011;40536;53.194;5.728;2022-10-16T04:46:07;431.15;;;408.20;;
54641;SDS011;40536;53.194;5.728;2022-10-16T04:48:35;414.67;;;393.60;;
54641;SDS011;40536;53.194;5.728;2022-10-16T04:51:00;399.40;;;379.98;;
54641;SDS011;40536;53.194;5.728;2022-10-16T04:53:26;393.30;;;373.60;;
54641;SDS011;40536;53.194;5.728;2022-10-16T04:55:52;373.40;;;355.38;;
54641;SDS011;40536;53.194;5.728;2022-10-16T04:58:17;365.55;;;347.63;;
54641;SDS011;40536;53.194;5.728;2022-10-16T05:00:43;366.67;;;348.80;;
54641;SDS011;40536;53.194;5.728;2022-10-16T05:03:11;342.70;;;326.50;;
54641;SDS011;40536;53.194;5.728;2022-10-16T05:05:41;345.52;;;329.30;;
54641;SDS011;40536;53.194;5.728;2022-10-16T05:08:08;293.88;;;280.60;;
54641;SDS011;40536;53.194;5.728;2022-10-16T05:10:34;283.33;;;270.45;;
54641;SDS011;40536;53.194;5.728;2022-10-16T05:12:59;290.58;;;277.45;;
54641;SDS011;40536;53.194;5.728;2022-10-16T05:15:25;267.48;;;255.82;;
54641;SDS011;40536;53.194;5.728;2022-10-16T05:17:54;297.30;;;283.98;;
54641;SDS011;40536;53.194;5.728;2022-10-16T05:20:20;305.48;;;291.05;;
54641;SDS011;40536;53.194;5.728;2022-10-16T05:22:46;352.25;;;333.98;;
54641;SDS011;40536;53.194;5.728;2022-10-16T05:25:12;350.00;;;333.08;;
54641;SDS011;40536;53.194;5.728;2022-10-16T05:27:38;359.25;;;340.58;;
54641;SDS011;40536;53.194;5.728;2022-10-16T05:30:04;338.15;;;321.48;;
54641;SDS011;40536;53.194;5.728;2022-10-16T05:32:30;348.30;;;331.35;;
54641;SDS011;40536;53.194;5.728;2022-10-16T05:34:55;359.15;;;340.77;;
54641;SDS011;40536;53.194;5.728;2022-10-16T05:37:21;339.65;;;322.92;;
54641;SDS011;40536;53.194;5.728;2022-10-16T05:39:46;342.60;;;323.95;;
54641;SDS011;40536;53.194;5.728;2022-10-16T05:42:12;380.23;;;360.75;;
54641;SDS011;40536;53.194;5.728;2022-10-16T05:44:38;403.17;;;381.40;;
54641;SDS011;40536;53.194;5.728;2022-10-16T05:47:03;451.58;;;426.42;;
54641;SDS011;40536;53.194;5.728;2022-10-16T05:49:29;429.20;;;406.45;;
54641;SDS011;40536;53.194;5.728;2022-10-16T05:51:55;457.63;;;432.80;;
54641;SDS011;40536;53.194;5.728;2022-10-16T05:54:20;512.17;;;482.05;;
54641;SDS011;40536;53.194;5.728;2022-10-16T05:56:46;470.52;;;444.90;;
54641;SDS011;40536;53.194;5.728;2022-10-16T05:59:12;459.02;;;433.25;;
54641;SDS011;40536;53.194;5.728;2022-10-16T06:01:37;450.70;;;426.00;;
54641;SDS011;40536;53.194;5.728;2022-10-16T06:04:03;464.80;;;438.27;;
54641;SDS011;40536;53.194;5.728;2022-10-16T06:06:29;438.38;;;413.73;;
54641;SDS011;40536;53.194;5.728;2022-10-16T06:08:56;444.13;;;419.98;;
54641;SDS011;40536;53.194;5.728;2022-10-16T06:11:24;424.67;;;401.42;;
54641;SDS011;40536;53.194;5.728;2022-10-16T06:13:51;397.90;;;377.10;;
54641;SDS011;40536;53.194;5.728;2022-10-16T06:16:18;414.85;;;391.10;;
54641;SDS011;40536;53.194;5.728;2022-10-16T06:18:45;421.85;;;399.02;;
54641;SDS011;40536;53.194;5.728;2022-10-16T06:21:12;432.85;;;408.02;;
54641;SDS011;40536;53.194;5.728;2022-10-16T06:23:41;484.38;;;456.30;;
54641;SDS011;40536;53.194;5.728;2022-10-16T06:26:11;481.13;;;454.05;;
54641;SDS011;40536;53.194;5.728;2022-10-16T06:28:39;509.98;;;481.05;;
54641;SDS011;40536;53.194;5.728;2022-10-16T06:31:05;533.03;;;501.02;;
54641;SDS011;40536;53.194;5.728;2022-10-16T06:33:32;553.22;;;518.25;;
54641;SDS011;40536;53.194;5.728;2022-10-16T06:36:02;515.50;;;485.00;;
54641;SDS011;40536;53.194;5.728;2022-10-16T06:38:28;487.85;;;460.27;;
54641;SDS011;40536;53.194;5.728;2022-10-16T06:40:54;502.02;;;472.55;;
54641;SDS011;40536;53.194;5.728;2022-10-16T06:43:20;464.90;;;439.42;;
54641;SDS011;40536;53.194;5.728;2022-10-16T06:45:52;474.58;;;448.50;;
54641;SDS011;40536;53.194;5.728;2022-10-16T06:48:18;412.40;;;390.30;;
54641;SDS011;40536;53.194;5.728;2022-10-16T06:50:54;405.15;;;382.98;;
54641;SDS011;40536;53.194;5.728;2022-10-16T06:53:24;388.73;;;368.35;;
54641;SDS011;40536;53.194;5.728;2022-10-16T06:55:50;387.80;;;367.73;;
54641;SDS011;40536;53.194;5.728;2022-10-16T06:58:15;391.88;;;371.48;;
54641;SDS011;40536;53.194;5.728;2022-10-16T07:00:41;395.65;;;375.48;;
54641;SDS011;40536;53.194;5.728;2022-10-16T07:03:07;341.95;;;324.65;;
54641;SDS011;40536;53.194;5.728;2022-10-16T07:05:37;347.42;;;329.35;;
54641;SDS011;40536;53.194;5.728;2022-10-16T07:08:03;317.17;;;301.80;;
54641;SDS011;40536;53.194;5.728;2022-10-16T07:10:30;356.38;;;338.27;;
54641;SDS011;40536;53.194;5.728;2022-10-16T07:12:56;318.73;;;303.90;;
54641;SDS011;40536;53.194;5.728;2022-10-16T07:15:22;317.90;;;301.95;;
54641;SDS011;40536;53.194;5.728;2022-10-16T07:17:48;347.17;;;330.02;;
54641;SDS011;40536;53.194;5.728;2022-10-16T07:20:13;405.40;;;383.85;;
54641;SDS011;40536;53.194;5.728;2022-10-16T07:22:39;313.95;;;299.42;;
54641;SDS011;40536;53.194;5.728;2022-10-16T07:25:05;298.08;;;283.77;;
54641;SDS011;40536;53.194;5.728;2022-10-16T07:27:31;410.25;;;385.75;;
54641;SDS011;40536;53.194;5.728;2022-10-16T07:29:56;288.48;;;275.02;;
54641;SDS011;40536;53.194;5.728;2022-10-16T07:32:22;286.67;;;273.67;;
54641;SDS011;40536;53.194;5.728;2022-10-16T07:34:48;247.40;;;236.27;;
54641;SDS011;40536;53.194;5.728;2022-10-16T07:37:14;274.30;;;260.98;;
54641;SDS011;40536;53.194;5.728;2022-10-16T07:39:40;268.55;;;256.02;;
54641;SDS011;40536;53.194;5.728;2022-10-16T07:42:05;297.67;;;283.08;;
54641;SDS011;40536;53.194;5.728;2022-10-16T07:44:32;224.60;;;214.05;;
54641;SDS011;40536;53.194;5.728;2022-10-16T07:46:58;254.07;;;242.00;;
54641;SDS011;40536;53.194;5.728;2022-10-16T07:49:24;266.42;;;253.80;;
54641;SDS011;40536;53.194;5.728;2022-10-16T07:51:49;288.95;;;274.05;;
54641;SDS011;40536;53.194;5.728;2022-10-16T07:54:18;334.08;;;314.67;;
54641;SDS011;40536;53.194;5.728;2022-10-16T07:56:43;233.57;;;222.60;;
54641;SDS011;40536;53.194;5.728;2022-10-16T07:59:09;295.15;;;280.30;;
54641;SDS011;40536;53.194;5.728;2022-10-16T08:01:35;242.48;;;230.93;;
54641;SDS011;40536;53.194;5.728;2022-10-16T08:04:01;183.55;;;175.35;;
54641;SDS011;40536;53.194;5.728;2022-10-16T08:06:26;294.25;;;279.58;;
54641;SDS011;40536;53.194;5.728;2022-10-16T08:08:52;271.13;;;257.23;;
54641;SDS011;40536;53.194;5.728;2022-10-16T08:11:18;252.50;;;240.38;;
54641;SDS011;40536;53.194;5.728;2022-10-16T08:13:44;304.08;;;289.33;;
54641;SDS011;40536;53.194;5.728;2022-10-16T08:16:09;283.73;;;269.98;;
54641;SDS011;40536;53.194;5.728;2022-10-16T08:18:36;232.52;;;221.50;;
54641;SDS011;40536;53.194;5.728;2022-10-16T08:21:03;257.27;;;244.82;;
54641;SDS011;40536;53.194;5.728;2022-10-16T08:23:30;199.65;;;190.68;;
54641;SDS011;40536;53.194;5.728;2022-10-16T08:25:56;177.15;;;169.18;;
54641;SDS011;40536;53.194;5.728;2022-10-16T08:28:28;179.95;;;171.88;;
54641;SDS011;40536;53.194;5.728;2022-10-16T08:30:54;179.95;;;171.40;;
54641;SDS011;40536;53.194;5.728;2022-10-16T08:33:21;173.68;;;164.73;;
54641;SDS011;40536;53.194;5.728;2022-10-16T08:35:53;170.20;;;162.25;;
54641;SDS011;40536;53.194;5.728;2022-10-16T08:38:19;150.10;;;143.27;;
54641;SDS011;40536;53.194;5.728;2022-10-16T08:40:45;193.07;;;183.68;;
54641;SDS011;40536;53.194;5.728;2022-10-16T08:43:24;148.48;;;139.38;;
54641;SDS011;40536;53.194;5.728;2022-10-16T08:46:24;76.80;;;72.65;;
54641;SDS011;40536;53.194;5.728;2022-10-16T08:49:05;73.82;;;70.03;;
54641;SDS011;40536;53.194;5.728;2022-10-16T08:51:38;49.72;;;46.97;;
54641;SDS011;40536;53.194;5.728;2022-10-16T08:54:05;39.92;;;37.17;;
54641;SDS011;40536;53.194;5.728;2022-10-16T08:56:36;43.75;;;40.97;;
54641;SDS011;40536;53.194;5.728;2022-10-16T08:59:02;25.88;;;24.05;;
54641;SDS011;40536;53.194;5.728;2022-10-16T09:01:55;36.78;;;34.17;;
54641;SDS011;40536;53.194;5.728;2022-10-16T09:12:21;37.75;;;34.88;;
54641;SDS011;40536;53.194;5.728;2022-10-16T09:25:30;47.10;;;43.60;;
54641;SDS011;40536;53.194;5.728;2022-10-16T09:27:57;36.58;;;33.72;;
54641;SDS011;40536;53.194;5.728;2022-10-16T09:30:24;21.65;;;19.88;;
54641;SDS011;40536;53.194;5.728;2022-10-16T09:32:54;34.80;;;31.80;;
54641;SDS011;40536;53.194;5.728;2022-10-16T09:35:22;24.50;;;22.35;;
54641;SDS011;40536;53.194;5.728;2022-10-16T09:38:09;26.23;;;23.85;;
54641;SDS011;40536;53.194;5.728;2022-10-16T09:40:53;34.17;;;31.63;;
54641;SDS011;40536;53.194;5.728;2022-10-16T09:43:24;31.67;;;29.50;;
54641;SDS011;40536;53.194;5.728;2022-10-16T09:45:59;32.17;;;29.58;;
54641;SDS011;40536;53.194;5.728;2022-10-16T09:48:33;39.40;;;36.50;;
54641;SDS011;40536;53.194;5.728;2022-10-16T09:51:03;30.38;;;27.95;;
54641;SDS011;40536;53.194;5.728;2022-10-16T09:53:44;29.48;;;26.88;;
54641;SDS011;40536;53.194;5.728;2022-10-16T09:56:11;26.80;;;20.20;;
54641;SDS011;40536;53.194;5.728;2022-10-16T09:58:53;20.63;;;18.55;;
54641;SDS011;40536;53.194;5.728;2022-10-16T10:01:21;28.98;;;26.27;;
54641;SDS011;40536;53.194;5.728;2022-10-16T10:03:55;28.50;;;25.55;;
54641;SDS011;40536;53.194;5.728;2022-10-16T10:06:27;28.60;;;26.05;;
54641;SDS011;40536;53.194;5.728;2022-10-16T10:09:00;23.77;;;21.35;;
54641;SDS011;40536;53.194;5.728;2022-10-16T10:11:42;76.00;;;70.20;;
54641;SDS011;40536;53.194;5.728;2022-10-16T10:16:51;40.30;;;36.47;;
54641;SDS011;40536;53.194;5.728;2022-10-16T10:19:26;23.33;;;21.00;;
54641;SDS011;40536;53.194;5.728;2022-10-16T10:21:52;41.13;;;37.75;;
54641;SDS011;40536;53.194;5.728;2022-10-16T10:24:18;50.80;;;46.80;;
54641;SDS011;40536;53.194;5.728;2022-10-16T10:26:48;29.80;;;27.35;;
54641;SDS011;40536;53.194;5.728;2022-10-16T10:29:39;41.75;;;38.70;;
54641;SDS011;40536;53.194;5.728;2022-10-16T10:37:54;47.67;;;43.90;;
54641;SDS011;40536;53.194;5.728;2022-10-16T10:43:22;47.20;;;43.60;;
54641;SDS011;40536;53.194;5.728;2022-10-16T10:46:08;48.35;;;44.30;;
54641;SDS011;40536;53.194;5.728;2022-10-16T11:02:41;26.42;;;23.88;;
54641;SDS011;40536;53.194;5.728;2022-10-16T11:06:23;24.98;;;22.63;;
54641;SDS011;40536;53.194;5.728;2022-10-16T11:10:58;24.33;;;22.00;;
54641;SDS011;40536;53.194;5.728;2022-10-16T11:16:20;23.33;;;21.05;;
54641;SDS011;40536;53.194;5.728;2022-10-16T11:18:56;24.75;;;22.13;;
54641;SDS011;40536;53.194;5.728;2022-10-16T11:21:27;21.48;;;19.48;;
54641;SDS011;40536;53.194;5.728;2022-10-16T11:24:01;24.83;;;22.38;;
54641;SDS011;40536;53.194;5.728;2022-10-16T11:26:50;20.63;;;18.33;;
54641;SDS011;40536;53.194;5.728;2022-10-16T11:29:24;19.50;;;16.73;;
54641;SDS011;40536;53.194;5.728;2022-10-16T11:31:57;17.25;;;15.30;;
54641;SDS011;40536;53.194;5.728;2022-10-16T11:34:53;21.48;;;19.40;;
54641;SDS011;40536;53.194;5.728;2022-10-16T11:37:26;24.70;;;22.63;;
54641;SDS011;40536;53.194;5.728;2022-10-16T11:39:58;31.52;;;29.08;;
54641;SDS011;40536;53.194;5.728;2022-10-16T11:42:32;43.15;;;39.70;;
54641;SDS011;40536;53.194;5.728;2022-10-16T11:50:53;29.67;;;27.27;;
54641;SDS011;40536;53.194;5.728;2022-10-16T11:56:29;40.80;;;37.97;;
54641;SDS011;40536;53.194;5.728;2022-10-16T12:01:41;16.02;;;13.55;;
54641;SDS011;40536;53.194;5.728;2022-10-16T12:04:14;21.17;;;19.17;;
54641;SDS011;40536;53.194;5.728;2022-10-16T12:09:39;35.97;;;32.70;;
54641;SDS011;40536;53.194;5.728;2022-10-16T12:15:17;65.65;;;61.42;;
54641;SDS011;40536;53.194;5.728;2022-10-16T12:17:51;23.45;;;21.30;;
54641;SDS011;40536;53.194;5.728;2022-10-16T12:23:02;25.98;;;24.05;;
54641;SDS011;40536;53.194;5.728;2022-10-16T12:25:33;28.23;;;25.83;;
54641;SDS011;40536;53.194;5.728;2022-10-16T12:28:05;43.38;;;39.47;;
54641;SDS011;40536;53.194;5.728;2022-10-16T12:30:41;98.22;;;90.78;;
54641;SDS011;40536;53.194;5.728;2022-10-16T12:33:56;29.95;;;27.08;;
54641;SDS011;40536;53.194;5.728;2022-10-16T12:36:04;41.78;;;38.65;;
54641;SDS011;40536;53.194;5.728;2022-10-16T12:38:51;75.38;;;70.30;;
54641;SDS011;40536;53.194;5.728;2022-10-16T12:44:25;37.30;;;34.33;;
54641;SDS011;40536;53.194;5.728;2022-10-16T12:46:53;65.90;;;61.50;;
54641;SDS011;40536;53.194;5.728;2022-10-16T12:49:29;36.25;;;33.33;;
54641;SDS011;40536;53.194;5.728;2022-10-16T12:51:57;29.60;;;27.50;;
54641;SDS011;40536;53.194;5.728;2022-10-16T12:54:30;27.92;;;25.50;;
54641;SDS011;40536;53.194;5.728;2022-10-16T12:59:51;32.55;;;29.90;;
54641;SDS011;40536;53.194;5.728;2022-10-16T13:08:17;33.95;;;31.23;;
54641;SDS011;40536;53.194;5.728;2022-10-16T13:11:32;49.38;;;45.78;;
54641;SDS011;40536;53.194;5.728;2022-10-16T13:19:43;29.85;;;27.15;;
54641;SDS011;40536;53.194;5.728;2022-10-16T13:22:21;65.07;;;61.22;;
54641;SDS011;40536;53.194;5.728;2022-10-16T13:27:45;32.67;;;29.98;;
54641;SDS011;40536;53.194;5.728;2022-10-16T13:32:47;35.08;;;32.30;;
54641;SDS011;40536;53.194;5.728;2022-10-16T13:35:23;30.75;;;28.35;;
54641;SDS011;40536;53.194;5.728;2022-10-16T13:40:27;21.48;;;19.60;;
54641;SDS011;40536;53.194;5.728;2022-10-16T13:42:53;23.98;;;21.98;;
54641;SDS011;40536;53.194;5.728;2022-10-16T13:45:25;24.70;;;22.30;;
54641;SDS011;40536;53.194;5.728;2022-10-16T13:48:08;36.70;;;34.22;;
54641;SDS011;40536;53.194;5.728;2022-10-16T13:50:37;40.83;;;37.95;;
54641;SDS011;40536;53.194;5.728;2022-10-16T13:53:13;34.47;;;32.00;;
54641;SDS011;40536;53.194;5.728;2022-10-16T13:55:39;19.88;;;17.17;;
54641;SDS011;40536;53.194;5.728;2022-10-16T13:58:07;37.20;;;34.72;;
54641;SDS011;40536;53.194;5.728;2022-10-16T14:00:33;32.35;;;30.30;;
54641;SDS011;40536;53.194;5.728;2022-10-16T14:03:04;32.92;;;30.52;;
54641;SDS011;40536;53.194;5.728;2022-10-16T14:05:32;24.27;;;22.03;;
54641;SDS011;40536;53.194;5.728;2022-10-16T14:07:58;35.72;;;33.13;;
54641;SDS011;40536;53.194;5.728;2022-10-16T14:10:29;25.45;;;23.23;;
54641;SDS011;40536;53.194;5.728;2022-10-16T14:13:03;28.63;;;26.05;;
54641;SDS011;40536;53.194;5.728;2022-10-16T14:15:31;37.05;;;34.45;;
54641;SDS011;40536;53.194;5.728;2022-10-16T14:17:59;32.15;;;29.50;;
54641;SDS011;40536;53.194;5.728;2022-10-16T14:20:26;18.77;;;16.88;;
54641;SDS011;40536;53.194;5.728;2022-10-16T14:23:04;25.73;;;23.05;;
54641;SDS011;40536;53.194;5.728;2022-10-16T14:25:54;31.70;;;29.15;;
54641;SDS011;40536;53.194;5.728;2022-10-16T14:28:31;36.38;;;32.80;;
54641;SDS011;40536;53.194;5.728;2022-10-16T14:30:58;27.05;;;24.23;;
54641;SDS011;40536;53.194;5.728;2022-10-16T14:36:12;24.23;;;21.85;;
54641;SDS011;40536;53.194;5.728;2022-10-16T14:38:47;35.65;;;32.75;;
54641;SDS011;40536;53.194;5.728;2022-10-16T14:41:40;27.45;;;25.23;;
54641;SDS011;40536;53.194;5.728;2022-10-16T14:44:10;21.80;;;19.20;;
54641;SDS011;40536;53.194;5.728;2022-10-16T14:46:37;38.25;;;18.05;;
54641;SDS011;40536;53.194;5.728;2022-10-16T14:51:33;17.13;;;15.60;;
54641;SDS011;40536;53.194;5.728;2022-10-16T14:53:59;18.15;;;16.85;;
54641;SDS011;40536;53.194;5.728;2022-10-16T14:56:48;18.67;;;16.92;;
54641;SDS011;40536;53.194;5.728;2022-10-16T14:59:17;19.40;;;17.35;;
54641;SDS011;40536;53.194;5.728;2022-10-16T15:01:58;22.35;;;17.77;;
54641;SDS011;40536;53.194;5.728;2022-10-16T15:04:23;16.55;;;14.75;;
54641;SDS011;40536;53.194;5.728;2022-10-16T15:06:49;16.38;;;15.05;;
54641;SDS011;40536;53.194;5.728;2022-10-16T15:09:15;16.70;;;14.98;;
54641;SDS011;40536;53.194;5.728;2022-10-16T15:11:41;17.80;;;15.55;;
54641;SDS011;40536;53.194;5.728;2022-10-16T15:14:08;21.10;;;16.10;;
54641;SDS011;40536;53.194;5.728;2022-10-16T15:16:37;15.32;;;13.75;;
54641;SDS011;40536;53.194;5.728;2022-10-16T15:19:02;15.18;;;13.68;;
54641;SDS011;40536;53.194;5.728;2022-10-16T15:21:29;18.58;;;16.40;;
54641;SDS011;40536;53.194;5.728;2022-10-16T15:23:56;21.90;;;16.25;;
54641;SDS011;40536;53.194;5.728;2022-10-16T15:26:24;16.70;;;14.82;;
54641;SDS011;40536;53.194;5.728;2022-10-16T15:28:51;18.45;;;16.65;;
54641;SDS011;40536;53.194;5.728;2022-10-16T15:31:17;19.80;;;14.07;;
54641;SDS011;40536;53.194;5.728;2022-10-16T15:33:43;15.20;;;13.45;;
54641;SDS011;40536;53.194;5.728;2022-10-16T15:36:08;17.15;;;14.95;;
54641;SDS011;40536;53.194;5.728;2022-10-16T15:38:34;18.90;;;15.35;;
54641;SDS011;40536;53.194;5.728;2022-10-16T15:41:00;15.27;;;13.38;;
54641;SDS011;40536;53.194;5.728;2022-10-16T15:43:26;15.40;;;13.82;;
54641;SDS011;40536;53.194;5.728;2022-10-16T15:46:06;13.57;;;12.13;;
54641;SDS011;40536;53.194;5.728;2022-10-16T15:48:36;14.13;;;12.63;;
54641;SDS011;40536;53.194;5.728;2022-10-16T15:51:04;14.48;;;12.43;;
54641;SDS011;40536;53.194;5.728;2022-10-16T15:53:31;17.23;;;12.93;;
54641;SDS011;40536;53.194;5.728;2022-10-16T15:55:56;17.48;;;13.02;;
54641;SDS011;40536;53.194;5.728;2022-10-16T15:58:22;13.60;;;12.25;;
54641;SDS011;40536;53.194;5.728;2022-10-16T16:00:58;14.23;;;12.25;;
54641;SDS011;40536;53.194;5.728;2022-10-16T16:03:26;17.85;;;12.38;;
54641;SDS011;40536;53.194;5.728;2022-10-16T16:05:53;15.60;;;14.02;;
54641;SDS011;40536;53.194;5.728;2022-10-16T16:08:19;14.95;;;13.18;;
54641;SDS011;40536;53.194;5.728;2022-10-16T16:10:45;15.10;;;13.45;;
54641;SDS011;40536;53.194;5.728;2022-10-16T16:13:10;15.93;;;13.25;;
54641;SDS011;40536;53.194;5.728;2022-10-16T16:15:39;14.70;;;13.02;;